Time;durP1;ratioP1;P1;durP2;ratioP2;P2;SDS_P1;SDS_P2;PMS_P1;PMS_P2;Temp;Humidity;BMP_temperature;BMP_pressure;BME280_temperature;BME280_humidity;BME280_pressure;Samples;Min_cycle;Max_cycle;Signal;HPM_P1;HPM_P2
2022/09/11 00:00:36;;;;;;;;;10.00;9.00;;;;;15.93;83.59;101099.53;5033778;28;45596;-74
2022/09/11 00:03:01;;;;;;;;;12.00;9.00;;;;;15.94;83.53;101108.41;5011413;28;46380;-74
2022/09/11 00:05:27;;;;;;;;;15.50;11.50;;;;;15.89;83.60;101105.03;5023925;28;45384;-73
2022/09/11 00:07:52;;;;;;;;;10.75;9.00;;;;;15.88;83.67;101104.19;5032437;28;45512;-73
2022/09/11 00:10:18;;;;;;;;;10.00;9.00;;;;;15.87;83.87;101102.41;5033441;28;45380;-73
2022/09/11 00:12:43;;;;;;;;;13.50;9.50;;;;;15.85;83.78;101096.28;5031418;28;46291;-73
2022/09/11 00:15:09;;;;;;;;;8.75;6.50;;;;;15.85;84.04;101104.28;5025698;28;45507;-73
2022/09/11 00:17:35;;;;;;;;;9.00;9.00;;;;;15.78;84.05;101098.25;5035688;28;45469;-74
2022/09/11 00:20:01;;;;;;;;;12.25;9.00;;;;;15.80;84.06;101101.78;5035827;28;45542;-75
2022/09/11 00:22:26;;;;;;;;;9.50;9.50;;;;;15.77;84.38;101099.19;5035928;28;45862;-75
2022/09/11 00:24:53;;;;;;;;;8.50;8.50;;;;;15.80;84.23;101103.53;5034679;28;45448;-74
2022/09/11 00:27:19;;;;;;;;;7.75;7.75;;;;;15.79;84.08;101100.03;5036040;28;45459;-74
2022/09/11 00:29:45;;;;;;;;;7.50;5.75;;;;;15.77;84.14;101099.19;5036376;28;45515;-74
2022/09/11 00:32:10;;;;;;;;;10.00;10.00;;;;;15.75;84.35;101093.00;5036424;28;45470;-74
2022/09/11 00:34:36;;;;;;;;;8.75;7.25;;;;;15.77;84.31;101090.28;5031916;28;45496;-74
2022/09/11 00:37:02;;;;;;;;;7.75;5.75;;;;;15.65;84.61;101075.56;5015544;28;45588;-74
2022/09/11 00:39:27;;;;;;;;;8.00;7.00;;;;;15.71;84.40;101086.03;4998675;28;45493;-76
2022/09/11 00:41:54;;;;;;;;;12.75;7.75;;;;;15.71;84.44;101102.00;5015397;28;46441;-74
2022/09/11 00:44:19;;;;;;;;;12.75;10.25;;;;;15.70;84.61;101094.06;5026427;28;45486;-75
2022/09/11 00:46:52;;;;;;;;;13.25;11.00;;;;;15.66;84.79;101090.66;5036578;28;45538;-75
2022/09/11 00:49:35;;;;;;;;;8.25;6.00;;;;;15.66;84.49;101090.66;5036076;28;45533;-74
2022/09/11 00:52:07;;;;;;;;;8.25;5.50;;;;;15.64;85.10;101095.16;5033581;28;46076;-75
2022/09/11 00:54:40;;;;;;;;;9.00;7.00;;;;;15.63;85.14;101093.41;5036011;28;45390;-74
2022/09/11 00:57:07;;;;;;;;;10.75;6.75;;;;;15.62;85.11;101091.66;5035809;28;45340;-73
2022/09/11 00:59:34;;;;;;;;;10.00;9.00;;;;;15.61;85.04;101088.13;5018102;28;45578;-74
2022/09/11 01:02:00;;;;;;;;;10.75;10.50;;;;;15.59;85.29;101083.78;5035055;28;45429;-74
2022/09/11 01:04:28;;;;;;;;;7.00;7.00;;;;;15.56;84.90;101070.56;5035473;28;45448;-74
2022/09/11 01:06:56;;;;;;;;;8.50;6.50;;;;;15.59;85.30;101071.34;5034942;28;45464;-74
2022/09/11 01:09:25;;;;;;;;;11.00;7.50;;;;;15.59;85.11;101081.09;5035375;28;45665;-73
2022/09/11 01:12:27;;;;;;;;;13.75;11.00;;;;;15.56;85.31;101075.88;5035502;28;45483;-73
2022/09/11 01:15:02;;;;;;;;;7.25;5.50;;;;;15.56;85.27;101078.53;5016659;28;45483;-74
2022/09/11 01:17:49;;;;;;;;;8.50;8.00;;;;;15.56;85.38;101078.53;5015609;28;45506;-75
2022/09/11 01:20:37;;;;;;;;;11.25;9.00;;;;;15.53;85.39;101071.56;5015402;28;45459;-74
2022/09/11 01:23:08;;;;;;;;;10.50;8.00;;;;;15.49;85.82;101069.00;5029137;28;45477;-74
2022/09/11 01:25:36;;;;;;;;;9.25;7.50;;;;;15.46;85.64;101062.88;5014869;28;45524;-73
2022/09/11 01:28:11;;;;;;;;;6.00;6.00;;;;;15.45;85.94;101069.09;5015580;28;45353;-75
2022/09/11 01:30:42;;;;;;;;;6.50;5.50;;;;;15.42;86.02;101061.22;5017262;28;45374;-74
2022/09/11 01:33:16;;;;;;;;;8.25;8.25;;;;;15.45;86.03;101068.25;5032313;28;46269;-74
2022/09/11 01:36:05;;;;;;;;;11.75;8.00;;;;;15.30;85.83;101048.31;5035280;28;45525;-75
2022/09/11 01:38:45;;;;;;;;;10.00;8.75;;;;;15.37;86.04;101049.84;5033537;28;45621;-75
2022/09/11 01:41:19;;;;;;;;;9.50;9.50;;;;;15.38;86.14;101064.03;5034928;28;45496;-75
2022/09/11 01:44:13;;;;;;;;;9.00;8.00;;;;;15.38;86.32;101064.03;5035324;28;45457;-74
2022/09/11 01:46:46;;;;;;;;;10.75;8.75;;;;;15.37;86.17;101059.66;5031307;28;45466;-75
2022/09/11 01:49:26;;;;;;;;;5.00;5.00;;;;;15.34;86.19;101060.59;5014393;28;45432;-74
2022/09/11 01:51:57;;;;;;;;;9.25;7.50;;;;;15.34;86.35;101060.59;5030018;28;45542;-74
2022/09/11 01:54:31;;;;;;;;;8.50;8.00;;;;;15.34;86.46;101063.28;5034779;28;45607;-73
2022/09/11 01:57:05;;;;;;;;;9.50;8.50;;;;;15.34;86.31;101065.06;5034913;28;45405;-74
2022/09/11 01:59:39;;;;;;;;;10.75;5.25;;;;;15.26;86.44;101047.53;5034763;28;45451;-75
2022/09/11 02:02:10;;;;;;;;;6.25;6.25;;;;;15.29;86.63;101062.56;5033651;28;45396;-73
2022/09/11 02:04:43;;;;;;;;;9.50;9.50;;;;;15.30;86.54;101066.09;5034545;28;45553;-74
2022/09/11 02:07:22;;;;;;;;;6.25;6.25;;;;;15.29;86.60;101065.22;5033130;28;45751;-74
2022/09/11 02:09:57;;;;;;;;;10.00;8.00;;;;;15.25;86.67;101058.25;5035632;28;45524;-74
2022/09/11 02:12:33;;;;;;;;;12.50;9.50;;;;;15.27;87.12;101064.38;5029280;28;45736;-75
2022/09/11 02:14:59;;;;;;;;;8.50;6.50;;;;;15.24;87.00;101053.81;5033246;28;45510;-75
2022/09/11 02:18:03;;;;;;;;;6.00;6.00;;;;;15.25;86.85;101060.91;5032979;28;45540;-74
2022/09/11 02:20:30;;;;;;;;;9.75;8.00;;;;;15.22;86.90;101056.53;5033858;28;45388;-74
2022/09/11 02:22:56;;;;;;;;;10.25;8.75;;;;;15.21;87.06;101053.91;5034515;28;45475;-75
2022/09/11 02:25:21;;;;;;;;;8.75;8.50;;;;;15.22;87.33;101061.88;5034568;28;46217;-74
2022/09/11 02:27:46;;;;;;;;;9.00;6.00;;;;;15.17;87.27;101050.50;5033597;28;45485;-74
2022/09/11 02:30:13;;;;;;;;;13.25;5.50;;;;;15.21;87.21;101061.91;5034638;28;45465;-74
2022/09/11 02:32:42;;;;;;;;;9.50;6.75;;;;;15.15;87.34;101051.47;5034201;28;45781;-73
2022/09/11 02:35:09;;;;;;;;;8.00;7.75;;;;;15.10;87.36;101048.94;5034730;28;45497;-75
2022/09/11 02:37:57;;;;;;;;;10.75;9.75;;;;;15.13;87.66;101058.63;5031797;28;45504;-74
2022/09/11 02:40:32;;;;;;;;;9.00;7.50;;;;;15.10;87.47;101065.78;5033193;28;45531;-74
2022/09/11 02:43:18;;;;;;;;;11.50;11.00;;;;;15.10;87.57;101063.13;5034336;28;45377;-73
2022/09/11 02:45:59;;;;;;;;;9.25;6.50;;;;;15.09;87.57;101065.81;5034234;28;45332;-73
2022/09/11 02:48:36;;;;;;;;;8.00;8.00;;;;;15.04;87.46;101057.97;5032724;28;45388;-74
2022/09/11 02:51:07;;;;;;;;;7.50;5.50;;;;;15.03;87.81;101061.59;5034482;28;45354;-74
2022/09/11 02:53:46;;;;;;;;;11.25;7.75;;;;;14.99;87.92;101057.25;5033892;28;45461;-73
2022/09/11 02:56:33;;;;;;;;;8.75;8.75;;;;;14.96;87.87;101054.69;5032963;28;46786;-73
2022/09/11 02:59:05;;;;;;;;;9.50;7.25;;;;;14.97;88.09;101052.91;5033327;28;45531;-74
2022/09/11 03:01:51;;;;;;;;;7.50;7.25;;;;;14.97;88.54;101058.22;5033786;28;45477;-75
2022/09/11 03:04:17;;;;;;;;;10.50;7.50;;;;;14.95;88.34;101063.59;5033441;28;45278;-73
2022/09/11 03:06:44;;;;;;;;;12.50;12.50;;;;;14.94;88.59;101061.88;5032215;28;46153;-76
2022/09/11 03:09:09;;;;;;;;;10.00;9.50;;;;;14.90;88.77;101054.88;5033373;28;45428;-75
2022/09/11 03:11:35;;;;;;;;;8.75;8.50;;;;;14.92;88.96;101050.38;5033961;28;45558;-75
2022/09/11 03:14:00;;;;;;;;;6.25;6.25;;;;;14.89;88.96;101039.81;5033569;28;45426;-74
2022/09/11 03:16:26;;;;;;;;;9.25;9.00;;;;;14.93;88.77;101054.78;5034019;28;46248;-74
2022/09/11 03:18:53;;;;;;;;;10.50;9.25;;;;;14.92;88.63;101050.38;5028927;28;45493;-75
2022/09/11 03:21:18;;;;;;;;;8.00;8.00;;;;;14.90;89.05;101044.25;5027371;28;45527;-75
2022/09/11 03:23:43;;;;;;;;;11.25;11.25;;;;;14.90;88.89;101046.91;5014017;28;45653;-75
2022/09/11 03:26:09;;;;;;;;;8.75;8.75;;;;;14.90;89.00;101049.56;5013679;28;45406;-74
2022/09/11 03:28:35;;;;;;;;;12.00;8.75;;;;;14.85;88.78;101052.38;5027792;28;46305;-75
2022/09/11 03:31:01;;;;;;;;;12.50;9.00;;;;;14.82;89.38;101040.91;5034089;28;45426;-76
2022/09/11 03:33:26;;;;;;;;;10.25;8.00;;;;;14.84;89.02;101055.94;5033425;28;45394;-75
2022/09/11 03:35:52;;;;;;;;;14.00;9.75;;;;;14.82;88.57;101051.56;5033191;28;45477;-73
2022/09/11 03:38:18;;;;;;;;;6.00;6.00;;;;;14.82;88.85;101059.56;5029991;28;45456;-75
2022/09/11 03:40:44;;;;;;;;;7.75;7.75;;;;;14.79;89.34;101049.88;5033227;28;45574;-75
2022/09/11 03:43:11;;;;;;;;;10.25;8.75;;;;;14.72;89.21;101035.03;5033480;28;45533;-75
2022/09/11 03:45:37;;;;;;;;;15.00;9.75;;;;;14.80;89.37;101042.78;5033670;28;46056;-74
2022/09/11 03:48:02;;;;;;;;;9.00;9.00;;;;;14.81;89.57;101045.38;5032027;28;45518;-74
2022/09/11 03:50:28;;;;;;;;;10.75;9.25;;;;;14.80;89.24;101050.75;5033873;28;45413;-75
2022/09/11 03:52:53;;;;;;;;;15.25;10.00;;;;;14.78;89.15;101044.63;5032954;28;45491;-75
2022/09/11 03:55:18;;;;;;;;;11.50;8.50;;;;;14.73;89.20;101042.97;5033297;28;46026;-76
2022/09/11 03:57:44;;;;;;;;;13.50;9.00;;;;;14.69;89.56;101038.63;5031223;28;45570;-75
2022/09/11 04:00:10;;;;;;;;;10.75;8.50;;;;;14.74;89.62;101050.03;5032050;28;45520;-75
2022/09/11 04:02:35;;;;;;;;;9.00;9.00;;;;;14.74;89.41;101051.81;5033725;28;45431;-76
2022/09/11 04:05:02;;;;;;;;;8.25;8.25;;;;;14.72;89.47;101040.34;5032929;28;45493;-74
2022/09/11 04:07:30;;;;;;;;;11.00;9.00;;;;;14.71;89.83;101044.81;5032166;28;45339;-76
2022/09/11 04:09:56;;;;;;;;;11.25;9.25;;;;;14.70;89.48;101040.38;5016822;28;45360;-74
2022/09/11 04:12:21;;;;;;;;;10.75;10.00;;;;;14.68;89.47;101049.31;5033679;28;45357;-74
2022/09/11 04:14:49;;;;;;;;;15.25;12.75;;;;;14.67;89.80;101047.59;5033182;28;45653;-74
2022/09/11 04:17:14;;;;;;;;;12.00;8.00;;;;;14.67;89.84;101040.47;5030405;28;45499;-75
2022/09/11 04:19:40;;;;;;;;;13.00;8.50;;;;;14.65;89.87;101050.31;5033101;28;45359;-74
2022/09/11 04:22:05;;;;;;;;;9.25;6.50;;;;;14.66;89.66;101045.84;5032325;28;45384;-74
2022/09/11 04:24:30;;;;;;;;;9.50;9.50;;;;;14.66;89.32;101057.34;5033248;28;45523;-74
2022/09/11 04:26:58;;;;;;;;;10.75;10.75;;;;;14.60;89.57;101052.19;5031793;28;45463;-74
2022/09/11 04:29:25;;;;;;;;;10.50;7.50;;;;;14.64;89.18;101053.00;5032614;28;45399;-74
2022/09/11 04:31:50;;;;;;;;;12.25;8.25;;;;;14.63;89.40;101056.59;5032090;28;45562;-75
2022/09/11 04:34:16;;;;;;;;;10.75;8.75;;;;;14.61;89.47;101061.09;5032492;28;45759;-74
2022/09/11 04:36:42;;;;;;;;;5.25;1.50;;;;;14.58;89.42;101059.34;5032642;28;45539;-74
2022/09/11 04:39:08;;;;;;;;;12.25;10.50;;;;;14.58;89.29;101062.00;5014432;28;45566;-74
2022/09/11 04:41:33;;;;;;;;;8.75;8.75;;;;;14.58;89.51;101059.34;5032279;28;45527;-75
2022/09/11 04:43:59;;;;;;;;;10.50;10.50;;;;;14.60;89.33;101065.47;5032661;28;46131;-73
2022/09/11 04:46:25;;;;;;;;;10.25;10.00;;;;;14.55;89.24;101056.78;5033228;28;45789;-74
2022/09/11 04:48:54;;;;;;;;;10.75;10.75;;;;;14.56;88.78;101064.72;5031702;28;45505;-74
2022/09/11 04:51:25;;;;;;;;;10.00;8.50;;;;;14.53;89.41;101058.59;5032541;28;45644;-74
2022/09/11 04:53:53;;;;;;;;;13.75;10.00;;;;;14.51;89.16;101063.09;5032666;28;45962;-75
2022/09/11 04:56:22;;;;;;;;;15.75;14.25;;;;;14.51;89.36;101073.72;5031955;28;45468;-74
2022/09/11 04:58:59;;;;;;;;;10.50;9.25;;;;;14.50;89.54;101064.00;5017572;28;45588;-74
2022/09/11 05:01:26;;;;;;;;;6.75;6.75;;;;;14.52;89.32;101071.03;5029240;28;45388;-74
2022/09/11 05:03:52;;;;;;;;;14.25;11.50;;;;;14.51;89.23;101079.03;5018135;28;45684;-74
2022/09/11 05:06:18;;;;;;;;;7.00;7.00;;;;;14.49;89.51;101078.22;5035786;28;45418;-74
2022/09/11 05:08:44;;;;;;;;;8.75;8.75;;;;;14.51;89.45;101079.03;5034864;28;45336;-74
2022/09/11 05:11:16;;;;;;;;;12.25;9.00;;;;;14.53;89.33;101085.19;5036127;28;45617;-75
2022/09/11 05:13:42;;;;;;;;;8.00;8.00;;;;;14.52;89.52;101075.47;5036359;28;45552;-74
2022/09/11 05:16:10;;;;;;;;;11.00;8.50;;;;;14.53;89.14;101083.41;5035039;28;45613;-74
2022/09/11 05:18:40;;;;;;;;;12.50;10.50;;;;;14.53;88.80;101088.72;5028839;28;45347;-75
2022/09/11 05:21:14;;;;;;;;;14.50;12.50;;;;;14.49;89.07;101083.53;5015891;28;45522;-75
2022/09/11 05:23:41;;;;;;;;;11.25;9.50;;;;;14.52;89.02;101086.97;5014099;28;46317;-75
2022/09/11 05:26:13;;;;;;;;;15.00;12.75;;;;;14.50;89.09;101082.59;5016690;28;45542;-75
2022/09/11 05:28:38;;;;;;;;;14.25;12.00;;;;;14.53;88.94;101079.84;5034176;28;45397;-75
2022/09/11 05:31:14;;;;;;;;;13.25;10.00;;;;;14.55;88.76;101070.06;5035585;28;45406;-74
2022/09/11 05:33:40;;;;;;;;;7.25;7.25;;;;;14.79;88.37;101095.13;5036143;28;45512;-75
2022/09/11 05:36:05;;;;;;;;;10.00;9.00;;;;;15.02;87.01;101091.78;5035029;28;45759;-74
2022/09/11 05:38:33;;;;;;;;;12.25;9.75;;;;;15.38;85.76;101099.53;5033859;28;45371;-73
2022/09/11 05:40:59;;;;;;;;;14.50;11.00;;;;;15.68;84.45;101098.59;5034375;28;45605;-73
2022/09/11 05:43:25;;;;;;;;;14.25;10.75;;;;;16.05;82.95;101108.03;5031901;28;46126;-73
2022/09/11 05:45:55;;;;;;;;;15.50;15.50;;;;;16.40;81.75;101096.16;5035272;28;45400;-73
2022/09/11 05:48:21;;;;;;;;;9.00;9.00;;;;;16.92;79.27;101105.84;5034351;28;45390;-73
2022/09/11 05:51:00;;;;;;;;;10.25;10.25;;;;;17.44;77.23;101108.28;5035596;28;45332;-73
2022/09/11 05:53:28;;;;;;;;;14.00;10.75;;;;;17.75;75.63;101086.50;5026982;28;45577;-73
2022/09/11 05:55:54;;;;;;;;;13.50;9.75;;;;;18.16;73.60;101105.31;5015350;28;45350;-73
2022/09/11 05:58:20;;;;;;;;;15.00;12.50;;;;;18.48;72.69;101100.34;5031890;28;45403;-75
2022/09/11 06:00:47;;;;;;;;;11.00;11.00;;;;;19.07;70.36;101097.66;5034945;28;45403;-75
2022/09/11 06:03:16;;;;;;;;;10.25;9.00;;;;;19.67;68.94;101108.19;5034070;28;46209;-75
2022/09/11 06:05:42;;;;;;;;;11.25;10.50;;;;;20.19;67.22;101100.22;5017093;28;45745;-74
2022/09/11 06:08:09;;;;;;;;;15.00;12.50;;;;;20.79;65.39;101108.75;5033899;28;45540;-76
2022/09/11 06:10:35;;;;;;;;;11.75;8.50;;;;;21.30;63.17;101110.34;5034824;28;45552;-75
2022/09/11 06:13:01;;;;;;;;;8.50;8.50;;;;;21.74;60.60;101106.09;5036030;28;45530;-74
2022/09/11 06:15:27;;;;;;;;;13.75;9.75;;;;;22.38;59.55;101108.59;5054709;28;45505;-74
2022/09/11 06:17:54;;;;;;;;;12.50;10.25;;;;;23.00;57.37;101094.84;5040675;28;45580;-74
2022/09/11 06:20:20;;;;;;;;;12.00;9.75;;;;;23.49;56.73;101096.19;5035754;28;46256;-74
2022/09/11 06:22:45;;;;;;;;;13.75;13.00;;;;;24.03;54.60;101094.44;5026756;28;46195;-76
2022/09/11 06:25:11;;;;;;;;;11.50;11.50;;;;;24.56;52.35;101097.91;5025637;28;45492;-76
2022/09/11 06:27:36;;;;;;;;;14.50;11.75;;;;;25.01;51.04;101092.91;5029181;28;45464;-74
2022/09/11 06:30:01;;;;;;;;;8.00;8.00;;;;;25.39;50.79;101085.69;5014198;28;45458;-74
2022/09/11 06:32:27;;;;;;;;;8.00;7.75;;;;;25.83;48.91;101104.97;5018731;28;45867;-73
2022/09/11 06:34:53;;;;;;;;;11.50;9.00;;;;;26.17;48.08;101102.41;5022539;28;45522;-75
2022/09/11 06:37:18;;;;;;;;;10.25;8.75;;;;;26.60;46.57;101101.72;5030802;28;45439;-73
2022/09/11 06:39:44;;;;;;;;;9.75;9.75;;;;;26.97;45.54;101096.09;5032485;28;45523;-74
2022/09/11 06:42:09;;;;;;;;;12.50;10.50;;;;;27.05;44.52;101093.59;5033443;28;46925;-74
2022/09/11 06:44:35;;;;;;;;;14.00;12.50;;;;;27.17;44.56;101096.31;5025385;28;45586;-75
2022/09/11 06:47:00;;;;;;;;;15.00;13.25;;;;;27.34;44.49;101100.38;5018938;28;45503;-75
2022/09/11 06:49:25;;;;;;;;;14.00;10.00;;;;;27.53;43.11;101103.28;5026876;28;45464;-74
2022/09/11 06:51:52;;;;;;;;;5.00;3.00;;;;;27.72;42.70;101096.31;5032869;28;46051;-75
2022/09/11 06:54:18;;;;;;;;;17.75;14.75;;;;;28.00;42.44;101090.28;5027732;28;45317;-75
2022/09/11 06:56:44;;;;;;;;;10.25;9.00;;;;;28.60;42.84;101094.25;5014764;28;46167;-74
2022/09/11 06:59:09;;;;;;;;;11.50;10.50;;;;;29.12;41.38;101092.28;5024673;28;45373;-75
2022/09/11 07:01:35;;;;;;;;;10.00;10.00;;;;;29.37;39.98;101081.91;5022856;28;46154;-75
2022/09/11 07:04:01;;;;;;;;;15.00;13.00;;;;;29.63;39.12;101084.94;5016900;28;45614;-75
2022/09/11 07:06:29;;;;;;;;;12.00;12.00;;;;;29.79;39.90;101089.84;5023179;28;45646;-74
2022/09/11 07:09:02;;;;;;;;;15.00;13.50;;;;;30.03;38.53;101091.25;5019415;28;45787;-76
2022/09/11 07:11:33;;;;;;;;;13.50;12.00;;;;;30.19;38.86;101088.81;5024783;28;46910;-74
2022/09/11 07:14:04;;;;;;;;;17.50;14.00;;;;;30.49;38.47;101089.63;5023433;28;45450;-75
2022/09/11 07:16:30;;;;;;;;;12.50;9.50;;;;;30.72;37.46;101087.38;5026533;28;45409;-74
2022/09/11 07:18:56;;;;;;;;;15.00;14.25;;;;;30.74;36.75;101090.81;5014080;28;45692;-75
2022/09/11 07:21:24;;;;;;;;;15.00;13.25;;;;;30.81;36.67;101091.09;5023035;28;45415;-74
2022/09/11 07:23:53;;;;;;;;;12.50;11.00;;;;;30.85;36.78;101097.09;5027184;28;45506;-75
2022/09/11 07:26:19;;;;;;;;;16.25;13.25;;;;;31.06;36.74;101094.13;5019642;28;45473;-74
2022/09/11 07:28:47;;;;;;;;;16.00;14.25;;;;;31.15;36.67;101095.94;5026312;28;45447;-74
2022/09/11 07:31:15;;;;;;;;;16.75;15.75;;;;;31.49;36.02;101095.28;5012964;28;46341;-75
2022/09/11 07:33:49;;;;;;;;;18.50;14.75;;;;;31.53;35.25;101094.81;5018523;28;45479;-74
2022/09/11 07:36:20;;;;;;;;;16.75;14.50;;;;;31.59;35.39;101101.56;5015904;28;45385;-76
2022/09/11 07:38:46;;;;;;;;;15.00;11.75;;;;;31.59;34.84;101096.09;5027665;28;45531;-76
2022/09/11 07:41:14;;;;;;;;;14.25;13.00;;;;;31.65;35.32;101090.00;5024843;28;45400;-75
2022/09/11 07:43:40;;;;;;;;;11.75;10.50;;;;;31.87;35.13;101099.63;5023176;28;45324;-76
2022/09/11 07:46:08;;;;;;;;;11.00;11.00;;;;;32.01;35.43;101105.53;5025669;28;45361;-75
2022/09/11 07:48:34;;;;;;;;;10.00;9.25;;;;;32.24;34.22;101100.44;5028563;28;45391;-74
2022/09/11 07:51:03;;;;;;;;;17.00;14.75;;;;;32.47;34.77;101106.22;5016462;28;46829;-76
2022/09/11 07:53:33;;;;;;;;;15.25;10.25;;;;;32.46;34.09;101106.38;5021266;28;45503;-75
2022/09/11 07:56:08;;;;;;;;;17.50;15.50;;;;;32.38;33.67;101101.72;5027716;28;45403;-75
2022/09/11 07:58:36;;;;;;;;;18.25;14.50;;;;;32.25;33.18;101102.16;5023301;28;45516;-75
2022/09/11 08:01:04;;;;;;;;;14.25;12.00;;;;;32.13;33.28;101095.22;5025440;28;45451;-74
2022/09/11 08:03:30;;;;;;;;;12.75;12.75;;;;;32.45;33.94;101096.47;5018905;28;45401;-75
2022/09/11 08:06:00;;;;;;;;;16.75;13.50;;;;;32.50;33.37;101099.59;5024449;28;45298;-74
2022/09/11 08:08:28;;;;;;;;;14.00;13.00;;;;;32.32;33.58;101100.47;5024554;28;45518;-76
2022/09/11 08:11:02;;;;;;;;;15.50;13.50;;;;;32.47;34.07;101102.63;5029951;28;46351;-76
2022/09/11 08:13:28;;;;;;;;;21.50;15.50;;;;;32.70;33.42;101105.69;5018751;28;45428;-75
2022/09/11 08:15:53;;;;;;;;;1.00;0.00;;;;;32.76;33.67;101100.41;5026315;28;45450;-74
2022/09/11 08:18:19;;;;;;;;;13.25;13.25;;;;;32.63;32.74;101100.00;5027579;28;45609;-75
2022/09/11 08:20:44;;;;;;;;;14.75;12.50;;;;;32.71;33.64;101091.84;5024093;28;46174;-74
2022/09/11 08:23:11;;;;;;;;;14.25;14.25;;;;;32.81;33.36;101078.03;5020779;28;45639;-75
2022/09/11 08:25:37;;;;;;;;;11.50;11.50;;;;;33.07;32.91;101094.41;5019420;28;45421;-75
2022/09/11 08:28:03;;;;;;;;;17.25;15.50;;;;;33.27;32.80;101099.63;5024113;28;45613;-75
2022/09/11 08:30:31;;;;;;;;;17.00;14.75;;;;;33.32;32.26;101094.50;5016613;28;46292;-75
2022/09/11 08:32:56;;;;;;;;;14.75;14.00;;;;;33.02;32.72;101095.91;5028839;28;45562;-75
2022/09/11 08:35:21;;;;;;;;;15.00;13.50;;;;;32.91;32.67;101097.09;5031103;28;45471;-74
2022/09/11 08:37:47;;;;;;;;;13.50;13.50;;;;;32.85;33.11;101104.06;5030830;28;45630;-75
2022/09/11 08:40:12;;;;;;;;;8.00;8.00;;;;;32.68;32.61;101107.75;5038671;28;45782;-75
2022/09/11 08:42:42;;;;;;;;;14.25;14.00;;;;;32.38;32.56;101113.50;5036600;28;45514;-81
2022/09/11 08:45:14;;;;;;;;;18.75;15.25;;;;;32.05;33.82;101126.03;5032638;28;45478;-75
2022/09/11 08:47:49;;;;;;;;;16.50;14.00;;;;;32.17;33.25;101110.28;5031740;28;45647;-75
2022/09/11 08:50:19;;;;;;;;;14.50;14.25;;;;;32.52;33.52;101119.41;5034536;28;45371;-79
2022/09/11 08:52:45;;;;;;;;;15.75;12.25;;;;;32.28;33.14;101115.50;5027725;28;45678;-75
2022/09/11 08:55:18;;;;;;;;;15.50;13.75;;;;;32.15;33.23;101113.19;5030813;28;45485;-76
2022/09/11 08:58:02;;;;;;;;;17.50;15.00;;;;;32.19;32.81;101119.19;5026294;28;45505;-75
2022/09/11 09:00:44;;;;;;;;;16.75;16.00;;;;;31.97;33.80;101121.38;5032661;28;46301;-75
2022/09/11 09:03:40;;;;;;;;;14.50;14.50;;;;;31.76;33.87;101123.56;5009720;28;45479;-75
2022/09/11 09:06:23;;;;;;;;;18.00;16.75;;;;;31.48;34.46;101129.06;5011452;28;45471;-76
2022/09/11 09:09:03;;;;;;;;;14.25;14.25;;;;;31.36;34.82;101125.69;5023991;28;45324;-74
2022/09/11 09:11:38;;;;;;;;;13.50;12.75;;;;;31.57;34.79;101124.56;5032077;28;47262;-74
2022/09/11 09:14:16;;;;;;;;;14.50;13.75;;;;;31.95;33.82;101120.69;5024635;28;45562;-75
2022/09/11 09:16:52;;;;;;;;;12.25;11.75;;;;;32.05;33.89;101124.19;5023189;28;45468;-76
2022/09/11 09:19:25;;;;;;;;;11.75;11.75;;;;;32.39;34.32;101134.38;5023833;28;45567;-76
2022/09/11 09:22:12;;;;;;;;;11.00;11.00;;;;;32.64;33.75;101125.47;5022901;28;45459;-75
2022/09/11 09:24:47;;;;;;;;;13.25;13.25;;;;;32.55;33.32;101122.69;5025422;28;45318;-75
2022/09/11 09:27:34;;;;;;;;;15.00;15.00;;;;;32.49;33.44;101130.66;5020850;28;45478;-76
2022/09/11 09:30:05;;;;;;;;;11.25;11.25;;;;;32.73;33.68;101130.84;5022492;28;45591;-75
2022/09/11 09:33:01;;;;;;;;;10.75;9.75;;;;;33.03;33.29;101128.59;5023157;28;46313;-76
2022/09/11 09:35:43;;;;;;;;;14.75;11.75;;;;;33.16;33.02;101138.22;5028502;28;45523;-76
2022/09/11 09:38:17;;;;;;;;;10.75;9.00;;;;;33.26;32.79;101133.50;5022549;28;45599;-78
2022/09/11 09:41:08;;;;;;;;;12.50;12.50;;;;;33.19;32.00;101126.94;5011674;28;45577;-78
2022/09/11 09:43:55;;;;;;;;;18.75;14.50;;;;;33.09;32.07;101129.81;5023432;28;46188;-79
2022/09/11 09:46:41;;;;;;;;;11.75;11.00;;;;;32.61;32.28;101107.50;5017706;28;45390;-79
2022/09/11 09:49:13;;;;;;;;;9.00;9.00;;;;;32.78;33.11;101124.88;5007312;28;46367;-78
2022/09/11 09:51:39;;;;;;;;;5.00;5.00;;;;;33.07;32.65;101124.53;5027612;28;45553;-77
2022/09/11 09:54:08;;;;;;;;;9.75;8.25;;;;;33.24;32.03;101119.13;5020181;28;45701;-76
2022/09/11 09:56:36;;;;;;;;;8.25;8.25;;;;;33.15;32.18;101120.94;5029534;28;45490;-76
2022/09/11 09:59:08;;;;;;;;;5.75;5.75;;;;;33.23;32.14;101131.94;5023259;28;45594;-76
2022/09/11 10:01:53;;;;;;;;;9.50;6.00;;;;;33.01;31.94;101124.31;5029843;28;45503;-75
2022/09/11 10:04:25;;;;;;;;;10.00;10.00;;;;;32.71;32.13;101124.69;5034071;28;46216;-77
2022/09/11 10:06:54;;;;;;;;;9.50;9.50;;;;;32.12;32.74;101120.84;5033504;28;45340;-77
2022/09/11 10:09:22;;;;;;;;;12.25;11.25;;;;;31.72;33.60;101114.84;5024790;28;45420;-76
2022/09/11 10:12:04;;;;;;;;;7.75;7.75;;;;;31.84;33.79;101120.91;5024672;28;45521;-76
2022/09/11 10:14:33;;;;;;;;;12.50;11.50;;;;;32.13;33.28;101112.50;5024811;28;46247;-76
2022/09/11 10:17:02;;;;;;;;;8.75;8.75;;;;;32.47;32.95;101105.38;5026791;28;45421;-76
2022/09/11 10:19:41;;;;;;;;;11.25;9.25;;;;;32.53;32.48;101116.50;5023645;28;45527;-78
2022/09/11 10:22:25;;;;;;;;;14.75;12.00;;;;;31.90;33.51;101114.81;5028935;28;45345;-78
2022/09/11 10:24:59;;;;;;;;;10.00;10.00;;;;;31.97;33.54;101115.91;5024707;28;48282;-77
2022/09/11 10:27:26;;;;;;;;;7.75;7.75;;;;;32.05;33.85;101109.66;5017104;28;45415;-78
2022/09/11 10:29:53;;;;;;;;;12.00;8.75;;;;;32.05;34.69;101102.31;5033552;28;45635;-80
2022/09/11 10:32:21;;;;;;;;;9.50;8.75;;;;;32.10;34.49;101109.16;5019601;28;45506;-79
2022/09/11 10:34:47;;;;;;;;;8.25;7.00;;;;;32.31;33.93;101106.13;5026672;28;46203;-78
2022/09/11 10:37:12;;;;;;;;;8.50;8.50;;;;;31.79;34.22;101101.41;5014939;28;45331;-78
2022/09/11 10:39:40;;;;;;;;;10.25;10.25;;;;;31.39;34.12;101110.91;5019611;28;45686;-79
2022/09/11 10:42:21;;;;;;;;;8.00;8.00;;;;;31.76;33.98;101101.72;5019200;28;45329;-78
2022/09/11 10:44:51;;;;;;;;;8.50;7.75;;;;;31.84;33.35;101094.47;5028741;28;45471;-78
2022/09/11 10:47:20;;;;;;;;;11.25;9.00;;;;;31.83;33.64;101102.81;5015338;28;45337;-79
2022/09/11 10:49:46;;;;;;;;;7.25;6.25;;;;;31.45;34.50;101099.34;5020618;28;45580;-78
2022/09/11 10:52:12;;;;;;;;;7.50;7.50;;;;;30.87;35.02;101095.94;5023237;28;45491;-78
2022/09/11 10:55:02;;;;;;;;;7.50;7.50;;;;;30.65;35.88;101089.81;5032139;28;45461;-78
2022/09/11 10:57:50;;;;;;;;;7.00;7.00;;;;;30.45;35.84;101083.59;5027722;28;45441;-79
2022/09/11 11:00:24;;;;;;;;;5.25;4.00;;;;;30.07;36.39;101081.81;5037263;28;45541;-79
2022/09/11 11:02:57;;;;;;;;;6.25;5.00;;;;;29.92;37.65;101090.41;5026000;28;45439;-79
2022/09/11 11:06:10;;;;;;;;;12.00;11.00;;;;;30.26;37.30;101067.25;5020650;28;45532;-78
2022/09/11 11:09:05;;;;;;;;;6.75;6.75;;;;;30.12;37.14;101076.75;5021890;28;45458;-79
2022/09/11 11:11:49;;;;;;;;;6.75;6.75;;;;;30.42;36.57;101070.25;5029966;28;45769;-80
2022/09/11 11:14:20;;;;;;;;;6.25;6.25;;;;;29.59;37.25;101081.66;5028026;28;45500;-79
2022/09/11 11:17:17;;;;;;;;;13.00;12.50;;;;;29.04;37.86;101073.06;5032204;28;46527;-76
2022/09/11 11:20:13;;;;;;;;;5.75;3.75;;;;;28.93;37.89;101075.91;5023748;28;45457;-79
2022/09/11 11:23:11;;;;;;;;;4.00;4.00;;;;;29.33;37.50;101075.03;5025043;28;45487;-79
2022/09/11 11:25:39;;;;;;;;;4.00;4.00;;;;;29.53;37.42;101078.63;5029141;28;45595;-78
2022/09/11 11:28:27;;;;;;;;;2.25;2.25;;;;;29.98;36.57;101071.78;5031768;28;45525;-77
2022/09/11 11:31:15;;;;;;;;;2.50;2.00;;;;;30.29;35.28;101070.56;5026092;28;45284;-78
2022/09/11 11:34:22;;;;;;;;;3.00;3.00;;;;;30.45;36.63;101066.38;5026498;28;45443;-77